sensor_id;sensor_type;location;lat;lon;timestamp;P1;durP1;ratioP1;P2;durP2;ratioP2
46054;SDS011;31788;6.954;-71.872;2023-03-01T00:00:05;29.05;;;21.73;;
46054;SDS011;31788;6.954;-71.872;2023-03-01T00:02:32;47.33;;;22.00;;
46054;SDS011;31788;6.954;-71.872;2023-03-01T00:04:59;27.75;;;21.13;;
46054;SDS011;31788;6.954;-71.872;2023-03-01T00:07:25;42.85;;;22.10;;
46054;SDS011;31788;6.954;-71.872;2023-03-01T00:09:52;64.18;;;23.25;;
46054;SDS011;31788;6.954;-71.872;2023-03-01T00:12:19;60.90;;;22.27;;
46054;SDS011;31788;6.954;-71.872;2023-03-01T00:14:46;32.15;;;20.23;;
46054;SDS011;31788;6.954;-71.872;2023-03-01T00:17:12;27.23;;;20.90;;
46054;SDS011;31788;6.954;-71.872;2023-03-01T00:19:39;25.80;;;20.90;;
46054;SDS011;31788;6.954;-71.872;2023-03-01T00:22:05;26.23;;;21.20;;
46054;SDS011;31788;6.954;-71.872;2023-03-01T00:24:32;25.60;;;20.20;;
46054;SDS011;31788;6.954;-71.872;2023-03-01T00:26:59;23.65;;;20.30;;
46054;SDS011;31788;6.954;-71.872;2023-03-01T00:29:25;24.85;;;21.10;;
46054;SDS011;31788;6.954;-71.872;2023-03-01T00:31:52;26.25;;;21.73;;
46054;SDS011;31788;6.954;-71.872;2023-03-01T00:34:18;25.45;;;20.60;;
46054;SDS011;31788;6.954;-71.872;2023-03-01T00:36:45;24.88;;;21.15;;
46054;SDS011;31788;6.954;-71.872;2023-03-01T00:39:13;23.70;;;21.05;;
46054;SDS011;31788;6.954;-71.872;2023-03-01T00:41:40;22.93;;;20.27;;
46054;SDS011;31788;6.954;-71.872;2023-03-01T00:44:08;25.00;;;20.83;;
46054;SDS011;31788;6.954;-71.872;2023-03-01T00:46:35;23.30;;;20.65;;
46054;SDS011;31788;6.954;-71.872;2023-03-01T00:49:01;23.38;;;20.80;;
46054;SDS011;31788;6.954;-71.872;2023-03-01T00:51:29;22.95;;;20.42;;
46054;SDS011;31788;6.954;-71.872;2023-03-01T00:53:57;22.38;;;20.08;;
46054;SDS011;31788;6.954;-71.872;2023-03-01T00:56:26;22.30;;;20.00;;
46054;SDS011;31788;6.954;-71.872;2023-03-01T00:58:53;23.77;;;21.27;;
46054;SDS011;31788;6.954;-71.872;2023-03-01T01:01:21;22.80;;;20.50;;
46054;SDS011;31788;6.954;-71.872;2023-03-01T01:03:51;22.85;;;20.45;;
46054;SDS011;31788;6.954;-71.872;2023-03-01T01:06:24;22.08;;;19.65;;
46054;SDS011;31788;6.954;-71.872;2023-03-01T01:08:58;23.45;;;20.50;;
46054;SDS011;31788;6.954;-71.872;2023-03-01T01:11:26;24.65;;;20.60;;
46054;SDS011;31788;6.954;-71.872;2023-03-01T01:13:54;22.38;;;20.05;;
46054;SDS011;31788;6.954;-71.872;2023-03-01T01:16:23;22.55;;;20.15;;
46054;SDS011;31788;6.954;-71.872;2023-03-01T01:18:51;22.60;;;20.27;;
46054;SDS011;31788;6.954;-71.872;2023-03-01T01:21:19;22.55;;;20.15;;
46054;SDS011;31788;6.954;-71.872;2023-03-01T01:23:47;23.33;;;20.38;;
46054;SDS011;31788;6.954;-71.872;2023-03-01T01:26:15;22.63;;;20.33;;
46054;SDS011;31788;6.954;-71.872;2023-03-01T01:28:44;21.85;;;19.42;;
46054;SDS011;31788;6.954;-71.872;2023-03-01T01:31:11;22.73;;;20.33;;
46054;SDS011;31788;6.954;-71.872;2023-03-01T01:33:38;22.95;;;20.30;;
46054;SDS011;31788;6.954;-71.872;2023-03-01T01:36:05;21.58;;;19.27;;
46054;SDS011;31788;6.954;-71.872;2023-03-01T01:38:33;22.48;;;20.13;;
46054;SDS011;31788;6.954;-71.872;2023-03-01T01:41:00;21.65;;;19.42;;
46054;SDS011;31788;6.954;-71.872;2023-03-01T01:43:28;22.15;;;19.65;;
46054;SDS011;31788;6.954;-71.872;2023-03-01T01:45:57;22.75;;;19.63;;
46054;SDS011;31788;6.954;-71.872;2023-03-01T01:48:46;22.40;;;20.10;;
46054;SDS011;31788;6.954;-71.872;2023-03-01T01:51:20;22.42;;;20.13;;
46054;SDS011;31788;6.954;-71.872;2023-03-01T01:53:53;22.10;;;19.80;;
46054;SDS011;31788;6.954;-71.872;2023-03-01T01:56:26;22.35;;;19.38;;
46054;SDS011;31788;6.954;-71.872;2023-03-01T01:58:54;22.90;;;19.60;;
46054;SDS011;31788;6.954;-71.872;2023-03-01T02:01:22;28.40;;;20.17;;
46054;SDS011;31788;6.954;-71.872;2023-03-01T02:03:50;24.23;;;19.37;;
46054;SDS011;31788;6.954;-71.872;2023-03-01T02:06:31;22.97;;;18.23;;
46054;SDS011;31788;6.954;-71.872;2023-03-01T02:09:14;22.63;;;18.67;;
46054;SDS011;31788;6.954;-71.872;2023-03-01T02:11:43;24.67;;;18.75;;
46054;SDS011;31788;6.954;-71.872;2023-03-01T02:14:10;20.63;;;18.52;;
46054;SDS011;31788;6.954;-71.872;2023-03-01T02:16:37;20.98;;;17.23;;
46054;SDS011;31788;6.954;-71.872;2023-03-01T02:19:03;18.80;;;16.83;;
46054;SDS011;31788;6.954;-71.872;2023-03-01T02:24:18;19.03;;;17.03;;
46054;SDS011;31788;6.954;-71.872;2023-03-01T02:27:00;19.70;;;16.58;;
46054;SDS011;31788;6.954;-71.872;2023-03-01T02:29:27;22.60;;;16.83;;
46054;SDS011;31788;6.954;-71.872;2023-03-01T02:31:55;19.77;;;17.07;;
46054;SDS011;31788;6.954;-71.872;2023-03-01T02:34:25;21.50;;;16.75;;
46054;SDS011;31788;6.954;-71.872;2023-03-01T02:36:59;21.80;;;17.67;;
46054;SDS011;31788;6.954;-71.872;2023-03-01T02:42:08;18.90;;;16.90;;
46054;SDS011;31788;6.954;-71.872;2023-03-01T02:44:38;19.35;;;17.35;;
46054;SDS011;31788;6.954;-71.872;2023-03-01T02:47:04;18.38;;;16.40;;
46054;SDS011;31788;6.954;-71.872;2023-03-01T02:49:32;21.50;;;17.35;;
46054;SDS011;31788;6.954;-71.872;2023-03-01T02:55:01;18.35;;;16.45;;
46054;SDS011;31788;6.954;-71.872;2023-03-01T02:57:28;18.27;;;16.38;;
46054;SDS011;31788;6.954;-71.872;2023-03-01T02:59:58;19.02;;;16.48;;
46054;SDS011;31788;6.954;-71.872;2023-03-01T03:02:32;19.10;;;17.10;;
46054;SDS011;31788;6.954;-71.872;2023-03-01T03:05:10;24.50;;;17.52;;
46054;SDS011;31788;6.954;-71.872;2023-03-01T03:07:41;18.80;;;16.90;;
46054;SDS011;31788;6.954;-71.872;2023-03-01T03:10:11;21.02;;;17.65;;
46054;SDS011;31788;6.954;-71.872;2023-03-01T03:12:59;19.65;;;16.85;;
46054;SDS011;31788;6.954;-71.872;2023-03-01T03:15:27;21.83;;;17.67;;
46054;SDS011;31788;6.954;-71.872;2023-03-01T03:17:54;19.67;;;17.57;;
46054;SDS011;31788;6.954;-71.872;2023-03-01T03:20:24;19.70;;;17.10;;
46054;SDS011;31788;6.954;-71.872;2023-03-01T03:22:53;18.70;;;16.73;;
46054;SDS011;31788;6.954;-71.872;2023-03-01T03:25:21;19.73;;;17.58;;
46054;SDS011;31788;6.954;-71.872;2023-03-01T03:27:48;19.58;;;17.48;;
46054;SDS011;31788;6.954;-71.872;2023-03-01T03:30:22;18.45;;;16.48;;
46054;SDS011;31788;6.954;-71.872;2023-03-01T03:32:50;18.30;;;16.33;;
46054;SDS011;31788;6.954;-71.872;2023-03-01T03:35:21;17.90;;;16.00;;
46054;SDS011;31788;6.954;-71.872;2023-03-01T03:37:50;17.70;;;15.90;;
46054;SDS011;31788;6.954;-71.872;2023-03-01T03:40:35;17.65;;;15.88;;
46054;SDS011;31788;6.954;-71.872;2023-03-01T03:43:07;17.02;;;15.27;;
46054;SDS011;31788;6.954;-71.872;2023-03-01T03:45:35;18.15;;;15.40;;
46054;SDS011;31788;6.954;-71.872;2023-03-01T03:48:02;17.38;;;15.10;;
46054;SDS011;31788;6.954;-71.872;2023-03-01T03:50:32;17.00;;;15.23;;
46054;SDS011;31788;6.954;-71.872;2023-03-01T03:53:03;17.58;;;15.70;;
46054;SDS011;31788;6.954;-71.872;2023-03-01T03:55:31;16.80;;;15.00;;
46054;SDS011;31788;6.954;-71.872;2023-03-01T03:57:59;17.00;;;15.27;;
46054;SDS011;31788;6.954;-71.872;2023-03-01T04:00:41;16.98;;;15.20;;
46054;SDS011;31788;6.954;-71.872;2023-03-01T04:03:09;17.30;;;14.90;;
46054;SDS011;31788;6.954;-71.872;2023-03-01T04:05:37;19.77;;;16.23;;
46054;SDS011;31788;6.954;-71.872;2023-03-01T04:08:05;17.23;;;15.45;;
46054;SDS011;31788;6.954;-71.872;2023-03-01T04:10:36;17.87;;;15.93;;
46054;SDS011;31788;6.954;-71.872;2023-03-01T04:13:09;17.52;;;15.25;;
46054;SDS011;31788;6.954;-71.872;2023-03-01T04:15:38;17.17;;;15.38;;
46054;SDS011;31788;6.954;-71.872;2023-03-01T04:18:06;17.10;;;15.00;;
46054;SDS011;31788;6.954;-71.872;2023-03-01T04:20:33;16.67;;;14.90;;
46054;SDS011;31788;6.954;-71.872;2023-03-01T04:25:57;17.88;;;16.02;;
46054;SDS011;31788;6.954;-71.872;2023-03-01T04:30:53;18.35;;;16.45;;
46054;SDS011;31788;6.954;-71.872;2023-03-01T04:33:21;18.65;;;16.75;;
46054;SDS011;31788;6.954;-71.872;2023-03-01T04:35:48;18.25;;;16.40;;
46054;SDS011;31788;6.954;-71.872;2023-03-01T04:38:15;18.58;;;16.35;;
46054;SDS011;31788;6.954;-71.872;2023-03-01T04:40:43;19.45;;;17.35;;
46054;SDS011;31788;6.954;-71.872;2023-03-01T04:43:10;18.60;;;16.70;;
46054;SDS011;31788;6.954;-71.872;2023-03-01T04:45:39;18.48;;;16.58;;
46054;SDS011;31788;6.954;-71.872;2023-03-01T04:48:06;18.48;;;16.58;;
46054;SDS011;31788;6.954;-71.872;2023-03-01T04:50:33;18.60;;;16.53;;
46054;SDS011;31788;6.954;-71.872;2023-03-01T04:53:00;17.63;;;15.82;;
46054;SDS011;31788;6.954;-71.872;2023-03-01T04:55:27;20.02;;;15.88;;
46054;SDS011;31788;6.954;-71.872;2023-03-01T04:57:54;18.20;;;15.85;;
46054;SDS011;31788;6.954;-71.872;2023-03-01T05:00:21;17.03;;;15.40;;
46054;SDS011;31788;6.954;-71.872;2023-03-01T05:02:52;17.38;;;15.52;;
46054;SDS011;31788;6.954;-71.872;2023-03-01T05:05:27;17.70;;;15.88;;
46054;SDS011;31788;6.954;-71.872;2023-03-01T05:07:56;17.85;;;15.80;;
46054;SDS011;31788;6.954;-71.872;2023-03-01T05:10:26;17.45;;;15.48;;
46054;SDS011;31788;6.954;-71.872;2023-03-01T05:12:57;17.90;;;16.00;;
46054;SDS011;31788;6.954;-71.872;2023-03-01T05:15:25;17.75;;;15.85;;
46054;SDS011;31788;6.954;-71.872;2023-03-01T05:17:54;17.80;;;16.00;;
46054;SDS011;31788;6.954;-71.872;2023-03-01T05:20:23;17.90;;;16.00;;
46054;SDS011;31788;6.954;-71.872;2023-03-01T05:22:58;17.95;;;16.23;;
46054;SDS011;31788;6.954;-71.872;2023-03-01T05:25:25;18.23;;;16.33;;
46054;SDS011;31788;6.954;-71.872;2023-03-01T05:27:52;18.92;;;16.10;;
46054;SDS011;31788;6.954;-71.872;2023-03-01T05:30:19;19.20;;;16.15;;
46054;SDS011;31788;6.954;-71.872;2023-03-01T05:32:47;17.85;;;16.05;;
46054;SDS011;31788;6.954;-71.872;2023-03-01T05:35:15;17.98;;;15.45;;
46054;SDS011;31788;6.954;-71.872;2023-03-01T05:37:43;17.35;;;15.48;;
46054;SDS011;31788;6.954;-71.872;2023-03-01T05:40:12;17.15;;;15.35;;
46054;SDS011;31788;6.954;-71.872;2023-03-01T05:43:16;16.77;;;15.07;;
46054;SDS011;31788;6.954;-71.872;2023-03-01T05:45:37;16.73;;;15.02;;
46054;SDS011;31788;6.954;-71.872;2023-03-01T05:48:05;16.75;;;15.05;;
46054;SDS011;31788;6.954;-71.872;2023-03-01T05:50:35;16.98;;;15.18;;
46054;SDS011;31788;6.954;-71.872;2023-03-01T05:53:09;16.58;;;14.80;;
46054;SDS011;31788;6.954;-71.872;2023-03-01T05:55:40;17.55;;;15.75;;
46054;SDS011;31788;6.954;-71.872;2023-03-01T05:58:10;17.17;;;15.38;;
46054;SDS011;31788;6.954;-71.872;2023-03-01T06:00:39;17.02;;;15.23;;
46054;SDS011;31788;6.954;-71.872;2023-03-01T06:03:06;17.20;;;15.38;;
46054;SDS011;31788;6.954;-71.872;2023-03-01T06:05:35;16.95;;;15.25;;
46054;SDS011;31788;6.954;-71.872;2023-03-01T06:08:02;17.42;;;15.65;;
46054;SDS011;31788;6.954;-71.872;2023-03-01T06:10:29;17.33;;;15.10;;
46054;SDS011;31788;6.954;-71.872;2023-03-01T06:12:55;18.30;;;16.20;;
46054;SDS011;31788;6.954;-71.872;2023-03-01T06:15:22;17.95;;;15.48;;
46054;SDS011;31788;6.954;-71.872;2023-03-01T06:17:50;21.77;;;19.38;;
46054;SDS011;31788;6.954;-71.872;2023-03-01T06:20:20;20.97;;;17.77;;
46054;SDS011;31788;6.954;-71.872;2023-03-01T06:22:49;19.88;;;17.77;;
46054;SDS011;31788;6.954;-71.872;2023-03-01T06:25:17;21.38;;;17.73;;
46054;SDS011;31788;6.954;-71.872;2023-03-01T06:27:46;20.48;;;17.88;;
46054;SDS011;31788;6.954;-71.872;2023-03-01T06:30:14;21.15;;;17.70;;
46054;SDS011;31788;6.954;-71.872;2023-03-01T06:32:42;23.98;;;17.40;;
46054;SDS011;31788;6.954;-71.872;2023-03-01T06:35:10;27.00;;;18.70;;
46054;SDS011;31788;6.954;-71.872;2023-03-01T06:37:38;27.17;;;17.75;;
46054;SDS011;31788;6.954;-71.872;2023-03-01T06:40:06;37.13;;;19.17;;
46054;SDS011;31788;6.954;-71.872;2023-03-01T06:42:37;29.58;;;18.27;;
46054;SDS011;31788;6.954;-71.872;2023-03-01T06:45:05;25.83;;;17.80;;
46054;SDS011;31788;6.954;-71.872;2023-03-01T06:47:33;26.17;;;18.25;;
46054;SDS011;31788;6.954;-71.872;2023-03-01T06:50:00;22.67;;;18.90;;
46054;SDS011;31788;6.954;-71.872;2023-03-01T06:52:27;22.52;;;18.52;;
46054;SDS011;31788;6.954;-71.872;2023-03-01T06:54:54;20.65;;;18.50;;
46054;SDS011;31788;6.954;-71.872;2023-03-01T06:57:21;21.05;;;18.75;;
46054;SDS011;31788;6.954;-71.872;2023-03-01T06:59:47;21.10;;;18.83;;
46054;SDS011;31788;6.954;-71.872;2023-03-01T07:02:14;20.73;;;18.00;;
46054;SDS011;31788;6.954;-71.872;2023-03-01T07:04:41;19.63;;;17.50;;
46054;SDS011;31788;6.954;-71.872;2023-03-01T07:07:09;18.48;;;16.45;;
46054;SDS011;31788;6.954;-71.872;2023-03-01T07:09:35;18.80;;;16.90;;
46054;SDS011;31788;6.954;-71.872;2023-03-01T07:12:02;19.73;;;17.63;;
46054;SDS011;31788;6.954;-71.872;2023-03-01T07:14:29;21.47;;;17.27;;
46054;SDS011;31788;6.954;-71.872;2023-03-01T07:16:55;18.55;;;16.55;;
46054;SDS011;31788;6.954;-71.872;2023-03-01T07:19:22;18.92;;;16.83;;
46054;SDS011;31788;6.954;-71.872;2023-03-01T07:21:49;21.73;;;17.08;;
46054;SDS011;31788;6.954;-71.872;2023-03-01T07:24:15;18.15;;;16.25;;
46054;SDS011;31788;6.954;-71.872;2023-03-01T07:26:42;18.70;;;16.70;;
46054;SDS011;31788;6.954;-71.872;2023-03-01T07:29:09;18.42;;;16.42;;
46054;SDS011;31788;6.954;-71.872;2023-03-01T07:31:36;19.20;;;16.83;;
46054;SDS011;31788;6.954;-71.872;2023-03-01T07:34:03;18.60;;;16.80;;
46054;SDS011;31788;6.954;-71.872;2023-03-01T07:36:29;19.58;;;16.88;;
46054;SDS011;31788;6.954;-71.872;2023-03-01T07:38:56;22.13;;;16.73;;
46054;SDS011;31788;6.954;-71.872;2023-03-01T07:41:24;19.83;;;17.05;;
46054;SDS011;31788;6.954;-71.872;2023-03-01T07:43:50;17.93;;;16.07;;
46054;SDS011;31788;6.954;-71.872;2023-03-01T07:46:17;19.33;;;17.27;;
46054;SDS011;31788;6.954;-71.872;2023-03-01T07:48:44;20.00;;;17.30;;
46054;SDS011;31788;6.954;-71.872;2023-03-01T07:51:10;18.95;;;17.05;;
46054;SDS011;31788;6.954;-71.872;2023-03-01T07:53:37;19.57;;;16.93;;
46054;SDS011;31788;6.954;-71.872;2023-03-01T07:56:04;20.02;;;17.95;;
46054;SDS011;31788;6.954;-71.872;2023-03-01T07:58:33;19.35;;;17.27;;
46054;SDS011;31788;6.954;-71.872;2023-03-01T08:01:02;23.10;;;18.15;;
46054;SDS011;31788;6.954;-71.872;2023-03-01T08:03:29;19.42;;;17.42;;
46054;SDS011;31788;6.954;-71.872;2023-03-01T08:05:55;19.35;;;17.30;;
46054;SDS011;31788;6.954;-71.872;2023-03-01T08:08:24;19.95;;;17.85;;
46054;SDS011;31788;6.954;-71.872;2023-03-01T08:10:51;19.05;;;17.05;;
46054;SDS011;31788;6.954;-71.872;2023-03-01T08:13:18;19.53;;;17.53;;
46054;SDS011;31788;6.954;-71.872;2023-03-01T08:15:50;20.08;;;17.90;;
46054;SDS011;31788;6.954;-71.872;2023-03-01T08:18:17;19.33;;;17.23;;
46054;SDS011;31788;6.954;-71.872;2023-03-01T08:20:45;19.25;;;17.15;;
46054;SDS011;31788;6.954;-71.872;2023-03-01T08:23:12;19.95;;;17.85;;
46054;SDS011;31788;6.954;-71.872;2023-03-01T08:25:39;18.80;;;16.90;;
46054;SDS011;31788;6.954;-71.872;2023-03-01T08:28:06;18.77;;;16.80;;
46054;SDS011;31788;6.954;-71.872;2023-03-01T08:30:32;19.25;;;17.25;;
46054;SDS011;31788;6.954;-71.872;2023-03-01T08:32:59;19.30;;;17.25;;
46054;SDS011;31788;6.954;-71.872;2023-03-01T08:35:26;19.27;;;17.27;;
46054;SDS011;31788;6.954;-71.872;2023-03-01T08:37:52;19.95;;;17.45;;
46054;SDS011;31788;6.954;-71.872;2023-03-01T08:40:19;19.00;;;17.10;;
46054;SDS011;31788;6.954;-71.872;2023-03-01T08:42:46;19.02;;;16.95;;
46054;SDS011;31788;6.954;-71.872;2023-03-01T08:45:12;18.90;;;17.00;;
46054;SDS011;31788;6.954;-71.872;2023-03-01T08:47:43;19.45;;;17.38;;
46054;SDS011;31788;6.954;-71.872;2023-03-01T08:50:10;18.80;;;16.80;;
46054;SDS011;31788;6.954;-71.872;2023-03-01T08:52:37;20.20;;;18.13;;
46054;SDS011;31788;6.954;-71.872;2023-03-01T08:55:04;18.90;;;16.92;;
46054;SDS011;31788;6.954;-71.872;2023-03-01T08:57:31;19.17;;;17.17;;
46054;SDS011;31788;6.954;-71.872;2023-03-01T08:59:57;19.40;;;17.35;;
46054;SDS011;31788;6.954;-71.872;2023-03-01T09:02:24;20.55;;;18.00;;
46054;SDS011;31788;6.954;-71.872;2023-03-01T09:04:50;19.38;;;17.15;;
46054;SDS011;31788;6.954;-71.872;2023-03-01T09:07:17;18.55;;;16.63;;
46054;SDS011;31788;6.954;-71.872;2023-03-01T09:09:44;19.20;;;17.30;;
46054;SDS011;31788;6.954;-71.872;2023-03-01T09:12:10;19.52;;;16.98;;
46054;SDS011;31788;6.954;-71.872;2023-03-01T09:14:37;20.20;;;17.33;;
46054;SDS011;31788;6.954;-71.872;2023-03-01T09:17:04;19.43;;;17.43;;
46054;SDS011;31788;6.954;-71.872;2023-03-01T09:19:30;19.80;;;17.70;;
46054;SDS011;31788;6.954;-71.872;2023-03-01T09:21:57;19.08;;;16.88;;
46054;SDS011;31788;6.954;-71.872;2023-03-01T09:24:24;20.05;;;17.45;;
46054;SDS011;31788;6.954;-71.872;2023-03-01T09:26:52;18.23;;;16.35;;
46054;SDS011;31788;6.954;-71.872;2023-03-01T09:29:21;19.40;;;17.00;;
46054;SDS011;31788;6.954;-71.872;2023-03-01T09:31:47;19.53;;;17.40;;
46054;SDS011;31788;6.954;-71.872;2023-03-01T09:34:14;19.10;;;17.05;;
46054;SDS011;31788;6.954;-71.872;2023-03-01T09:36:44;19.15;;;17.05;;
46054;SDS011;31788;6.954;-71.872;2023-03-01T09:39:11;19.50;;;17.40;;
46054;SDS011;31788;6.954;-71.872;2023-03-01T09:41:49;19.45;;;17.45;;
46054;SDS011;31788;6.954;-71.872;2023-03-01T09:47:12;20.40;;;17.73;;
46054;SDS011;31788;6.954;-71.872;2023-03-01T09:49:54;18.63;;;16.73;;
46054;SDS011;31788;6.954;-71.872;2023-03-01T09:52:43;20.00;;;17.85;;
46054;SDS011;31788;6.954;-71.872;2023-03-01T09:55:45;19.48;;;17.30;;
46054;SDS011;31788;6.954;-71.872;2023-03-01T09:58:35;19.02;;;17.10;;
46054;SDS011;31788;6.954;-71.872;2023-03-01T10:06:30;24.13;;;19.40;;
46054;SDS011;31788;6.954;-71.872;2023-03-01T10:08:58;24.17;;;19.55;;
46054;SDS011;31788;6.954;-71.872;2023-03-01T10:11:37;23.02;;;19.60;;
46054;SDS011;31788;6.954;-71.872;2023-03-01T10:19:42;23.67;;;20.13;;
46054;SDS011;31788;6.954;-71.872;2023-03-01T10:22:15;25.13;;;20.80;;
46054;SDS011;31788;6.954;-71.872;2023-03-01T10:24:42;23.83;;;19.80;;
46054;SDS011;31788;6.954;-71.872;2023-03-01T10:30:12;24.33;;;20.65;;
46054;SDS011;31788;6.954;-71.872;2023-03-01T10:33:49;42.03;;;32.53;;
46054;SDS011;31788;6.954;-71.872;2023-03-01T10:36:03;44.42;;;31.65;;
46054;SDS011;31788;6.954;-71.872;2023-03-01T10:38:31;104.47;;;71.25;;
46054;SDS011;31788;6.954;-71.872;2023-03-01T10:41:12;102.05;;;72.13;;
46054;SDS011;31788;6.954;-71.872;2023-03-01T10:43:49;82.27;;;60.40;;
46054;SDS011;31788;6.954;-71.872;2023-03-01T10:46:33;74.22;;;54.70;;
46054;SDS011;31788;6.954;-71.872;2023-03-01T10:49:05;53.55;;;39.17;;
46054;SDS011;31788;6.954;-71.872;2023-03-01T10:51:40;28.25;;;23.08;;
46054;SDS011;31788;6.954;-71.872;2023-03-01T10:54:17;36.55;;;23.73;;
46054;SDS011;31788;6.954;-71.872;2023-03-01T10:56:58;33.22;;;24.08;;
46054;SDS011;31788;6.954;-71.872;2023-03-01T11:04:57;21.35;;;18.58;;
46054;SDS011;31788;6.954;-71.872;2023-03-01T11:07:50;23.10;;;19.90;;
46054;SDS011;31788;6.954;-71.872;2023-03-01T11:13:05;23.65;;;19.15;;
46054;SDS011;31788;6.954;-71.872;2023-03-01T11:16:03;23.08;;;17.85;;
46054;SDS011;31788;6.954;-71.872;2023-03-01T11:18:33;21.00;;;18.30;;
46054;SDS011;31788;6.954;-71.872;2023-03-01T11:20:59;22.50;;;18.42;;
46054;SDS011;31788;6.954;-71.872;2023-03-01T11:23:28;28.98;;;25.95;;
46054;SDS011;31788;6.954;-71.872;2023-03-01T11:25:58;25.33;;;22.63;;
46054;SDS011;31788;6.954;-71.872;2023-03-01T11:28:31;30.40;;;26.00;;
46054;SDS011;31788;6.954;-71.872;2023-03-01T11:31:02;24.92;;;21.60;;
46054;SDS011;31788;6.954;-71.872;2023-03-01T11:42:10;22.33;;;19.30;;
46054;SDS011;31788;6.954;-71.872;2023-03-01T11:44:54;22.43;;;18.43;;
46054;SDS011;31788;6.954;-71.872;2023-03-01T11:58:27;23.80;;;18.97;;
46054;SDS011;31788;6.954;-71.872;2023-03-01T12:04:18;25.02;;;19.58;;
46054;SDS011;31788;6.954;-71.872;2023-03-01T12:34:24;22.98;;;18.73;;
46054;SDS011;31788;6.954;-71.872;2023-03-01T12:40:33;23.92;;;18.95;;
46054;SDS011;31788;6.954;-71.872;2023-03-01T12:48:47;22.73;;;19.48;;
46054;SDS011;31788;6.954;-71.872;2023-03-01T12:51:26;22.00;;;18.33;;
46054;SDS011;31788;6.954;-71.872;2023-03-01T12:53:56;20.45;;;17.95;;
46054;SDS011;31788;6.954;-71.872;2023-03-01T12:56:27;21.05;;;17.90;;
46054;SDS011;31788;6.954;-71.872;2023-03-01T12:59:42;22.42;;;19.08;;
46054;SDS011;31788;6.954;-71.872;2023-03-01T13:02:23;23.20;;;18.90;;
46054;SDS011;31788;6.954;-71.872;2023-03-01T13:05:23;23.75;;;18.63;;
46054;SDS011;31788;6.954;-71.872;2023-03-01T13:08:22;21.60;;;18.35;;
46054;SDS011;31788;6.954;-71.872;2023-03-01T13:11:00;23.40;;;20.13;;
46054;SDS011;31788;6.954;-71.872;2023-03-01T13:13:29;27.33;;;19.67;;
46054;SDS011;31788;6.954;-71.872;2023-03-01T13:15:57;31.92;;;20.05;;
46054;SDS011;31788;6.954;-71.872;2023-03-01T13:18:43;27.88;;;19.17;;
46054;SDS011;31788;6.954;-71.872;2023-03-01T13:21:11;23.20;;;19.75;;
46054;SDS011;31788;6.954;-71.872;2023-03-01T13:23:38;21.00;;;18.50;;
46054;SDS011;31788;6.954;-71.872;2023-03-01T13:28:39;24.80;;;18.83;;
46054;SDS011;31788;6.954;-71.872;2023-03-01T13:33:50;27.17;;;18.98;;
46054;SDS011;31788;6.954;-71.872;2023-03-01T13:44:24;36.55;;;19.15;;
46054;SDS011;31788;6.954;-71.872;2023-03-01T13:46:52;25.07;;;18.33;;
46054;SDS011;31788;6.954;-71.872;2023-03-01T13:49:28;22.38;;;18.48;;
46054;SDS011;31788;6.954;-71.872;2023-03-01T13:51:59;21.58;;;17.67;;
46054;SDS011;31788;6.954;-71.872;2023-03-01T13:54:30;23.08;;;18.63;;
46054;SDS011;31788;6.954;-71.872;2023-03-01T13:56:59;22.77;;;18.20;;
46054;SDS011;31788;6.954;-71.872;2023-03-01T13:59:27;22.33;;;17.98;;
46054;SDS011;31788;6.954;-71.872;2023-03-01T14:01:56;19.45;;;17.05;;
46054;SDS011;31788;6.954;-71.872;2023-03-01T14:04:29;20.98;;;17.52;;
46054;SDS011;31788;6.954;-71.872;2023-03-01T14:09:52;25.70;;;18.48;;
46054;SDS011;31788;6.954;-71.872;2023-03-01T14:20:26;21.95;;;18.65;;
46054;SDS011;31788;6.954;-71.872;2023-03-01T14:22:59;22.07;;;19.70;;
46054;SDS011;31788;6.954;-71.872;2023-03-01T14:25:35;21.52;;;19.23;;
46054;SDS011;31788;6.954;-71.872;2023-03-01T14:30:58;22.17;;;18.85;;
46054;SDS011;31788;6.954;-71.872;2023-03-01T14:33:29;23.15;;;20.05;;
46054;SDS011;31788;6.954;-71.872;2023-03-01T14:38:34;24.05;;;19.48;;
46054;SDS011;31788;6.954;-71.872;2023-03-01T14:41:06;21.25;;;18.95;;
46054;SDS011;31788;6.954;-71.872;2023-03-01T14:43:43;22.17;;;19.77;;
46054;SDS011;31788;6.954;-71.872;2023-03-01T14:46:19;22.85;;;19.00;;
46054;SDS011;31788;6.954;-71.872;2023-03-01T14:48:53;21.73;;;19.47;;
46054;SDS011;31788;6.954;-71.872;2023-03-01T14:51:23;21.40;;;19.00;;
46054;SDS011;31788;6.954;-71.872;2023-03-01T14:53:50;21.73;;;18.83;;
46054;SDS011;31788;6.954;-71.872;2023-03-01T14:56:17;22.13;;;19.85;;
46054;SDS011;31788;6.954;-71.872;2023-03-01T14:58:44;20.27;;;18.17;;
46054;SDS011;31788;6.954;-71.872;2023-03-01T15:01:15;19.07;;;17.17;;
46054;SDS011;31788;6.954;-71.872;2023-03-01T15:03:44;21.08;;;18.17;;
46054;SDS011;31788;6.954;-71.872;2023-03-01T15:06:16;20.33;;;17.83;;
46054;SDS011;31788;6.954;-71.872;2023-03-01T15:08:46;20.08;;;17.98;;
46054;SDS011;31788;6.954;-71.872;2023-03-01T15:13:50;19.73;;;17.52;;
46054;SDS011;31788;6.954;-71.872;2023-03-01T15:18:53;21.07;;;18.00;;
46054;SDS011;31788;6.954;-71.872;2023-03-01T15:21:34;21.30;;;18.30;;
46054;SDS011;31788;6.954;-71.872;2023-03-01T15:29:24;22.05;;;18.15;;
46054;SDS011;31788;6.954;-71.872;2023-03-01T15:34:35;20.52;;;18.42;;
46054;SDS011;31788;6.954;-71.872;2023-03-01T15:37:04;20.48;;;18.33;;
46054;SDS011;31788;6.954;-71.872;2023-03-01T15:39:37;19.42;;;17.13;;
46054;SDS011;31788;6.954;-71.872;2023-03-01T15:47:39;19.08;;;17.08;;
46054;SDS011;31788;6.954;-71.872;2023-03-01T15:50:23;18.40;;;16.50;;
46054;SDS011;31788;6.954;-71.872;2023-03-01T15:52:52;18.60;;;16.60;;
46054;SDS011;31788;6.954;-71.872;2023-03-01T15:55:21;20.08;;;17.77;;
46054;SDS011;31788;6.954;-71.872;2023-03-01T15:57:49;18.52;;;16.58;;
46054;SDS011;31788;6.954;-71.872;2023-03-01T16:00:24;19.33;;;17.23;;
46054;SDS011;31788;6.954;-71.872;2023-03-01T16:02:50;21.80;;;16.93;;
46054;SDS011;31788;6.954;-71.872;2023-03-01T16:07:48;26.88;;;19.17;;
46054;SDS011;31788;6.954;-71.872;2023-03-01T16:10:16;29.30;;;19.40;;
46054;SDS011;31788;6.954;-71.872;2023-03-01T16:12:43;22.08;;;18.05;;
46054;SDS011;31788;6.954;-71.872;2023-03-01T16:15:32;19.40;;;17.13;;
46054;SDS011;31788;6.954;-71.872;2023-03-01T16:18:02;22.17;;;18.23;;
46054;SDS011;31788;6.954;-71.872;2023-03-01T16:20:30;20.73;;;17.75;;
46054;SDS011;31788;6.954;-71.872;2023-03-01T16:22:58;22.23;;;18.08;;
46054;SDS011;31788;6.954;-71.872;2023-03-01T16:25:26;20.60;;;17.65;;
46054;SDS011;31788;6.954;-71.872;2023-03-01T16:27:52;21.40;;;18.83;;
46054;SDS011;31788;6.954;-71.872;2023-03-01T16:30:21;20.42;;;18.23;;
46054;SDS011;31788;6.954;-71.872;2023-03-01T16:32:48;21.50;;;17.60;;
46054;SDS011;31788;6.954;-71.872;2023-03-01T16:35:16;20.53;;;18.33;;
46054;SDS011;31788;6.954;-71.872;2023-03-01T16:37:44;19.60;;;17.50;;
46054;SDS011;31788;6.954;-71.872;2023-03-01T16:42:49;19.42;;;17.35;;
46054;SDS011;31788;6.954;-71.872;2023-03-01T16:45:16;19.13;;;17.08;;
46054;SDS011;31788;6.954;-71.872;2023-03-01T16:47:44;19.37;;;17.27;;
46054;SDS011;31788;6.954;-71.872;2023-03-01T16:50:11;20.63;;;17.45;;
46054;SDS011;31788;6.954;-71.872;2023-03-01T16:52:38;19.13;;;16.60;;
46054;SDS011;31788;6.954;-71.872;2023-03-01T16:55:05;19.23;;;17.20;;
46054;SDS011;31788;6.954;-71.872;2023-03-01T16:57:35;20.45;;;18.25;;